Time;durP1;ratioP1;P1;durP2;ratioP2;P2;SDS_P1;SDS_P2;PMS_P1;PMS_P2;Temp;Humidity;BMP_temperature;BMP_pressure;BME280_temperature;BME280_humidity;BME280_pressure;Samples;Min_cycle;Max_cycle;Signal;HPM_P1;HPM_P2
2022/08/15 00:01:37;;;;;;;2.30;0.82;;;12.30;99.90;;;;;;5035853;28;20071;-78
2022/08/15 00:04:08;;;;;;;0.45;0.30;;;12.30;99.90;;;;;;5036085;28;20028;-77
2022/08/15 00:06:40;;;;;;;0.98;0.40;;;12.40;99.90;;;;;;5034743;28;20041;-78
2022/08/15 00:09:13;;;;;;;0.52;0.52;;;12.40;99.90;;;;;;5032975;28;20422;-80
2022/08/15 00:11:43;;;;;;;1.33;0.40;;;12.40;99.90;;;;;;5035805;28;20053;-78
2022/08/15 00:14:19;;;;;;;1.13;0.45;;;12.50;99.90;;;;;;5032685;28;20014;-77
2022/08/15 00:16:48;;;;;;;2.10;0.47;;;12.50;99.90;;;;;;5035378;28;20026;-80
2022/08/15 00:19:23;;;;;;;0.95;0.40;;;12.60;99.90;;;;;;5033674;28;20029;-79
2022/08/15 00:21:54;;;;;;;1.58;0.40;;;12.70;99.90;;;;;;5034181;28;20037;-81
2022/08/15 00:24:25;;;;;;;3.28;1.02;;;12.70;99.90;;;;;;5034263;28;20037;-81
2022/08/15 00:26:54;;;;;;;1.23;0.75;;;12.80;99.90;;;;;;5034045;28;20018;-79
2022/08/15 00:29:23;;;;;;;1.27;0.40;;;12.80;99.90;;;;;;5034255;28;20108;-82
2022/08/15 00:31:53;;;;;;;1.15;0.40;;;12.90;99.90;;;;;;5031772;28;20029;-81
2022/08/15 00:34:22;;;;;;;0.75;0.65;;;13.00;99.90;;;;;;5034079;28;20071;-80
2022/08/15 00:36:50;;;;;;;7.45;0.30;;;13.00;99.90;;;;;;5031492;28;20449;-80
2022/08/15 00:39:20;;;;;;;0.57;0.32;;;13.00;99.90;;;;;;5033286;28;20041;-80
2022/08/15 00:41:50;;;;;;;1.10;0.32;;;13.10;99.90;;;;;;5033331;28;20056;-79
2022/08/15 00:44:23;;;;;;;0.55;0.38;;;13.20;99.90;;;;;;5034132;28;20377;-79
2022/08/15 00:46:58;;;;;;;1.05;0.30;;;13.20;99.90;;;;;;5034714;28;20390;-78
2022/08/15 00:49:28;;;;;;;0.70;0.30;;;13.30;99.90;;;;;;5034819;28;20529;-78
2022/08/15 00:52:10;;;;;;;1.10;0.35;;;13.40;99.90;;;;;;5035022;28;20037;-78
2022/08/15 00:55:16;;;;;;;0.50;0.40;;;13.40;99.90;;;;;;5033712;28;20017;-78
2022/08/15 00:57:47;;;;;;;2.35;0.35;;;13.40;99.90;;;;;;5034428;28;20017;-79
2022/08/15 01:00:18;;;;;;;1.35;0.30;;;13.40;99.90;;;;;;5035101;28;20115;-79
2022/08/15 01:02:46;;;;;;;0.50;0.45;;;13.50;99.90;;;;;;5035266;28;20045;-79
2022/08/15 01:05:15;;;;;;;0.82;0.30;;;13.50;99.90;;;;;;5033184;28;20042;-78
2022/08/15 01:07:44;;;;;;;0.35;0.35;;;13.50;99.90;;;;;;5033910;28;20025;-80
2022/08/15 01:10:12;;;;;;;0.40;0.30;;;13.50;99.90;;;;;;5016358;28;20433;-80
2022/08/15 01:12:40;;;;;;;0.57;0.30;;;13.60;99.90;;;;;;5031122;28;20029;-79
2022/08/15 01:15:14;;;;;;;0.50;0.30;;;13.70;99.90;;;;;;5033746;28;20025;-79
2022/08/15 01:17:42;;;;;;;1.33;0.55;;;13.70;99.90;;;;;;5034005;28;20053;-81
2022/08/15 01:20:24;;;;;;;1.15;0.40;;;13.80;99.90;;;;;;5034005;28;20021;-79
2022/08/15 01:23:18;;;;;;;1.00;0.50;;;13.80;99.90;;;;;;5033972;28;20049;-79
2022/08/15 01:26:07;;;;;;;0.70;0.30;;;13.80;99.90;;;;;;5033978;28;20057;-79
2022/08/15 01:28:39;;;;;;;1.77;0.40;;;13.90;99.90;;;;;;5033831;28;20099;-79
2022/08/15 01:31:18;;;;;;;1.10;0.28;;;13.90;99.90;;;;;;5035154;28;20547;-78
2022/08/15 01:33:53;;;;;;;1.35;0.30;;;14.00;99.90;;;;;;5035218;28;20032;-78
2022/08/15 01:36:23;;;;;;;0.47;0.30;;;14.00;99.90;;;;;;5035621;28;20098;-78
2022/08/15 01:38:55;;;;;;;1.98;0.40;;;13.90;99.90;;;;;;5034177;28;20032;-77
2022/08/15 01:41:44;;;;;;;0.30;0.30;;;14.00;99.90;;;;;;5033105;28;20509;-79
2022/08/15 01:44:24;;;;;;;0.30;0.30;;;14.10;99.90;;;;;;5034911;28;20025;-79
2022/08/15 01:47:01;;;;;;;0.40;0.30;;;14.10;99.90;;;;;;5033156;28;20030;-80
2022/08/15 01:49:36;;;;;;;0.38;0.20;;;14.10;99.90;;;;;;5031619;28;20025;-79
2022/08/15 01:52:05;;;;;;;0.45;0.40;;;14.10;99.90;;;;;;5033708;28;20068;-81
2022/08/15 01:54:40;;;;;;;0.63;0.45;;;14.00;99.90;;;;;;5034137;28;20108;-79
2022/08/15 01:57:09;;;;;;;0.82;0.30;;;14.10;99.90;;;;;;5034017;28;20021;-80
2022/08/15 01:59:36;;;;;;;0.22;0.20;;;14.20;99.90;;;;;;5033408;28;20506;-80
2022/08/15 02:02:10;;;;;;;0.47;0.30;;;14.30;99.90;;;;;;5033370;28;20044;-80
2022/08/15 02:04:41;;;;;;;0.30;0.28;;;14.30;99.90;;;;;;5033792;28;20040;-79
2022/08/15 02:07:19;;;;;;;0.73;0.30;;;14.30;99.90;;;;;;5033756;28;20044;-84
2022/08/15 02:09:47;;;;;;;0.35;0.22;;;14.40;99.90;;;;;;5033431;28;20033;-81
2022/08/15 02:12:17;;;;;;;0.70;0.38;;;14.50;99.90;;;;;;5032255;28;20436;-78
2022/08/15 02:14:45;;;;;;;4.05;0.40;;;14.50;99.90;;;;;;5032458;28;20029;-83
2022/08/15 02:17:13;;;;;;;1.45;0.35;;;14.50;99.90;;;;;;5014776;28;20505;-79
2022/08/15 02:19:42;;;;;;;1.70;0.40;;;14.50;99.90;;;;;;5031537;28;20017;-83
2022/08/15 02:22:10;;;;;;;3.58;0.45;;;14.50;99.90;;;;;;5032846;28;20018;-80
2022/08/15 02:24:38;;;;;;;0.50;0.40;;;14.60;99.90;;;;;;5032725;28;20029;-81
2022/08/15 02:27:07;;;;;;;0.50;0.22;;;14.60;99.90;;;;;;5032771;28;20021;-80
2022/08/15 02:29:34;;;;;;;1.17;0.40;;;14.60;99.90;;;;;;5032828;28;20017;-78
2022/08/15 02:32:16;;;;;;;0.63;0.30;;;14.60;99.90;;;;;;5032094;28;20371;-82
2022/08/15 02:34:46;;;;;;;0.20;0.20;;;14.50;99.90;;;;;;5031856;28;20048;-80
2022/08/15 02:37:18;;;;;;;0.85;0.30;;;14.60;99.90;;;;;;5031925;28;20071;-79
2022/08/15 02:39:48;;;;;;;0.55;0.40;;;14.60;99.90;;;;;;5031900;28;20315;-79
2022/08/15 02:42:17;;;;;;;1.10;0.40;;;14.60;99.90;;;;;;5031793;28;20030;-76
2022/08/15 02:44:50;;;;;;;0.85;0.35;;;14.60;99.90;;;;;;5031735;28;20052;-77
2022/08/15 02:47:20;;;;;;;1.38;0.40;;;14.70;99.90;;;;;;5033318;28;20504;-77
2022/08/15 02:49:48;;;;;;;0.30;0.30;;;14.80;99.90;;;;;;5033892;28;20393;-77
2022/08/15 02:52:16;;;;;;;1.00;0.30;;;15.00;99.90;;;;;;5033540;28;20032;-77
2022/08/15 02:54:43;;;;;;;3.20;0.75;;;15.10;99.90;;;;;;5033920;28;20037;-77
2022/08/15 02:57:10;;;;;;;0.45;0.20;;;15.20;99.90;;;;;;5033525;28;20026;-80
2022/08/15 02:59:38;;;;;;;1.25;0.30;;;15.30;99.90;;;;;;5033763;28;20470;-78
2022/08/15 03:02:07;;;;;;;0.40;0.30;;;15.50;99.90;;;;;;5033506;28;20099;-74
2022/08/15 03:04:35;;;;;;;2.75;0.77;;;15.60;99.90;;;;;;5034057;28;20132;-77
2022/08/15 03:07:03;;;;;;;0.57;0.22;;;15.50;99.90;;;;;;5033687;28;20025;-74
2022/08/15 03:09:30;;;;;;;2.08;0.40;;;15.50;99.90;;;;;;5033419;28;20167;-80
2022/08/15 03:11:58;;;;;;;0.68;0.30;;;15.40;99.90;;;;;;5033492;28;20025;-81
2022/08/15 03:14:26;;;;;;;1.25;0.38;;;15.30;99.90;;;;;;5033495;28;20025;-76
2022/08/15 03:16:53;;;;;;;0.20;0.20;;;15.20;99.90;;;;;;5033533;28;20057;-81
2022/08/15 03:19:26;;;;;;;0.65;0.40;;;15.10;99.90;;;;;;5033430;28;20028;-81
2022/08/15 03:21:54;;;;;;;0.85;0.20;;;15.00;99.90;;;;;;5033261;28;20394;-75
2022/08/15 03:24:22;;;;;;;1.75;0.30;;;15.00;99.90;;;;;;5033261;28;20087;-74
2022/08/15 03:26:50;;;;;;;1.30;0.40;;;14.90;99.90;;;;;;5033330;28;20018;-77
2022/08/15 03:29:20;;;;;;;3.25;0.40;;;14.90;99.90;;;;;;5033316;28;20029;-75
2022/08/15 03:31:50;;;;;;;3.17;0.80;;;14.90;99.90;;;;;;5033122;28;20021;-77
2022/08/15 03:34:22;;;;;;;1.42;0.40;;;14.90;99.90;;;;;;5033668;28;20597;-77
2022/08/15 03:36:50;;;;;;;1.92;0.20;;;14.90;99.90;;;;;;5033378;28;20025;-77
2022/08/15 03:39:17;;;;;;;4.57;0.40;;;14.80;99.90;;;;;;5033233;28;20481;-75
2022/08/15 03:41:45;;;;;;;0.22;0.20;;;14.80;99.90;;;;;;5033139;28;20033;-75
2022/08/15 03:44:13;;;;;;;1.75;0.55;;;14.80;99.90;;;;;;5033014;28;20038;-79
2022/08/15 03:46:40;;;;;;;1.38;0.35;;;14.80;99.90;;;;;;5033331;28;20070;-75
2022/08/15 03:49:09;;;;;;;0.40;0.40;;;14.80;99.90;;;;;;5033163;28;20026;-75
2022/08/15 03:51:36;;;;;;;1.38;0.45;;;14.80;99.90;;;;;;5033098;28;20018;-77
2022/08/15 03:54:04;;;;;;;1.27;0.40;;;14.80;99.90;;;;;;5014332;28;20018;-78
2022/08/15 03:56:33;;;;;;;0.35;0.30;;;14.80;99.90;;;;;;5032662;28;20474;-75
2022/08/15 03:59:01;;;;;;;0.38;0.20;;;14.80;99.90;;;;;;5032761;28;20021;-78
2022/08/15 04:01:35;;;;;;;2.00;0.50;;;14.70;99.90;;;;;;5032481;28;20044;-74
2022/08/15 04:04:04;;;;;;;0.70;0.20;;;14.70;99.90;;;;;;5032858;28;20097;-75
2022/08/15 04:06:32;;;;;;;1.02;0.38;;;14.60;99.90;;;;;;5032596;28;20072;-76
2022/08/15 04:09:00;;;;;;;0.70;0.30;;;14.60;99.90;;;;;;5032668;28;20028;-75
2022/08/15 04:11:29;;;;;;;2.50;0.38;;;14.60;99.90;;;;;;5032554;28;20556;-75
2022/08/15 04:13:57;;;;;;;0.30;0.30;;;14.70;99.90;;;;;;5032657;28;20033;-79
2022/08/15 04:16:25;;;;;;;3.83;0.30;;;14.70;99.90;;;;;;5014952;28;20025;-76
2022/08/15 04:18:53;;;;;;;0.95;0.30;;;14.80;99.90;;;;;;5032492;28;20018;-78
2022/08/15 04:21:20;;;;;;;1.50;0.65;;;14.80;99.90;;;;;;5032526;28;20031;-75
2022/08/15 04:23:48;;;;;;;0.57;0.28;;;14.80;99.90;;;;;;5032102;28;20022;-75
2022/08/15 04:26:16;;;;;;;1.75;0.35;;;14.70;99.90;;;;;;5033133;28;20071;-75
2022/08/15 04:28:44;;;;;;;3.30;0.40;;;14.70;99.90;;;;;;5032444;28;20462;-76
2022/08/15 04:31:18;;;;;;;1.55;0.40;;;14.60;99.90;;;;;;5014465;28;20039;-75
2022/08/15 04:33:46;;;;;;;0.75;0.60;;;14.60;99.90;;;;;;5035713;28;20466;-80
2022/08/15 04:36:15;;;;;;;0.60;0.30;;;14.60;99.90;;;;;;5034023;28;20057;-75
2022/08/15 04:38:45;;;;;;;1.20;0.30;;;14.60;99.90;;;;;;5033705;28;20044;-77
2022/08/15 04:41:12;;;;;;;0.47;0.32;;;14.60;99.90;;;;;;5019051;28;20052;-77
2022/08/15 04:43:42;;;;;;;0.40;0.30;;;14.60;99.90;;;;;;5036014;28;20074;-75
2022/08/15 04:46:10;;;;;;;0.63;0.30;;;14.60;99.90;;;;;;5035708;28;20037;-76
2022/08/15 04:48:37;;;;;;;0.63;0.43;;;14.70;99.90;;;;;;5019728;28;20021;-79
2022/08/15 04:51:06;;;;;;;0.75;0.30;;;14.60;99.90;;;;;;5039592;28;20135;-79
2022/08/15 04:53:36;;;;;;;2.75;0.43;;;14.60;99.90;;;;;;5036914;28;20386;-79
2022/08/15 04:56:06;;;;;;;2.92;0.40;;;14.60;99.90;;;;;;5038032;28;20489;-77
2022/08/15 04:58:34;;;;;;;0.73;0.40;;;14.50;99.90;;;;;;5018456;28;20017;-75
2022/08/15 05:01:07;;;;;;;0.30;0.30;;;14.50;99.90;;;;;;5036070;28;20021;-76
2022/08/15 05:03:35;;;;;;;0.50;0.47;;;14.50;99.90;;;;;;5036703;28;20104;-75
2022/08/15 05:06:05;;;;;;;0.90;0.47;;;14.50;99.90;;;;;;5036648;28;20482;-77
2022/08/15 05:08:35;;;;;;;0.73;0.30;;;14.50;99.90;;;;;;5018619;28;20052;-74
2022/08/15 05:11:10;;;;;;;0.95;0.30;;;14.40;99.90;;;;;;5035689;28;20022;-75
2022/08/15 05:13:39;;;;;;;0.40;0.30;;;14.40;99.90;;;;;;5014757;28;20021;-78
2022/08/15 05:16:07;;;;;;;0.40;0.32;;;14.40;99.90;;;;;;5033363;28;20338;-78
2022/08/15 05:18:37;;;;;;;0.55;0.43;;;14.40;99.90;;;;;;5034986;28;20111;-75
2022/08/15 05:21:06;;;;;;;0.75;0.55;;;14.30;99.90;;;;;;5035273;28;20466;-75
2022/08/15 05:23:35;;;;;;;0.68;0.40;;;14.30;99.90;;;;;;5035364;28;20108;-76
2022/08/15 05:26:05;;;;;;;0.40;0.30;;;14.20;99.90;;;;;;5034311;28;20026;-78
2022/08/15 05:28:32;;;;;;;1.05;0.68;;;14.20;99.90;;;;;;5037367;28;20025;-76
2022/08/15 05:31:02;;;;;;;2.75;0.38;;;14.20;99.90;;;;;;5035692;28;20421;-75
2022/08/15 05:33:31;;;;;;;1.33;0.40;;;14.20;99.90;;;;;;5035799;28;20017;-76
2022/08/15 05:36:02;;;;;;;0.85;0.40;;;14.10;99.90;;;;;;5037021;28;20486;-75
2022/08/15 05:39:11;;;;;;;0.43;0.20;;;14.10;99.90;;;;;;5034948;28;20025;-76
2022/08/15 05:41:50;;;;;;;1.80;0.32;;;14.10;99.90;;;;;;4992995;28;20069;-75
2022/08/15 05:44:30;;;;;;;0.57;0.30;;;14.10;99.90;;;;;;4995415;28;20022;-75
2022/08/15 05:47:16;;;;;;;0.50;0.30;;;14.00;99.90;;;;;;5023146;28;20045;-77
2022/08/15 05:50:00;;;;;;;3.58;0.20;;;14.00;99.90;;;;;;5036437;28;20024;-76
2022/08/15 05:52:57;;;;;;;6.43;0.60;;;14.00;99.90;;;;;;5035656;28;20029;-76
2022/08/15 05:55:28;;;;;;;1.25;0.47;;;13.90;99.90;;;;;;5035316;28;20057;-75
2022/08/15 05:58:13;;;;;;;0.80;0.40;;;13.90;99.90;;;;;;5035680;28;20045;-76
2022/08/15 06:00:45;;;;;;;0.27;0.20;;;13.70;99.90;;;;;;5034312;28;20025;-76
2022/08/15 06:03:24;;;;;;;0.22;0.20;;;13.70;99.90;;;;;;5034433;28;20052;-75
2022/08/15 06:06:00;;;;;;;0.40;0.30;;;13.60;99.90;;;;;;5034475;28;20117;-77
2022/08/15 06:08:41;;;;;;;0.52;0.40;;;13.60;99.90;;;;;;5034210;28;20014;-76
2022/08/15 06:11:30;;;;;;;0.73;0.30;;;13.60;99.90;;;;;;5033630;28;20029;-77
2022/08/15 06:14:28;;;;;;;0.68;0.30;;;13.50;99.90;;;;;;5033641;28;20067;-78
2022/08/15 06:17:02;;;;;;;0.65;0.40;;;13.40;99.90;;;;;;5037008;28;20017;-76
2022/08/15 06:19:34;;;;;;;0.20;0.20;;;13.40;99.90;;;;;;5016827;28;20533;-79
2022/08/15 06:22:10;;;;;;;0.43;0.20;;;13.40;99.90;;;;;;5035062;28;20156;-75
2022/08/15 06:25:16;;;;;;;1.85;0.32;;;13.30;99.90;;;;;;5015666;28;20113;-75
2022/08/15 06:27:49;;;;;;;0.55;0.20;;;13.30;99.90;;;;;;5027645;28;20038;-76
2022/08/15 06:30:41;;;;;;;1.10;0.80;;;13.10;99.90;;;;;;5032958;28;20025;-76
2022/08/15 06:33:46;;;;;;;0.43;0.30;;;13.10;99.90;;;;;;5031659;28;20029;-75
2022/08/15 06:36:49;;;;;;;0.30;0.20;;;13.00;99.90;;;;;;5034386;28;20060;-76
2022/08/15 06:39:22;;;;;;;0.50;0.30;;;13.00;99.90;;;;;;5034953;28;20107;-74
2022/08/15 06:41:58;;;;;;;1.42;0.30;;;12.90;99.90;;;;;;5035659;28;20022;-74
2022/08/15 06:44:27;;;;;;;1.33;0.32;;;12.90;99.90;;;;;;5034324;28;20041;-76
2022/08/15 06:47:03;;;;;;;0.80;0.30;;;12.80;99.90;;;;;;5034747;28;20018;-76
2022/08/15 06:49:35;;;;;;;0.35;0.20;;;12.80;99.90;;;;;;5033848;28;20017;-75
2022/08/15 06:52:03;;;;;;;0.60;0.40;;;12.70;99.90;;;;;;5035025;28;20020;-75
2022/08/15 06:54:32;;;;;;;0.40;0.28;;;12.70;99.90;;;;;;5032561;28;20076;-75
2022/08/15 06:57:08;;;;;;;4.30;0.38;;;12.60;99.90;;;;;;5032701;28;20448;-78
2022/08/15 07:00:09;;;;;;;1.25;0.47;;;12.60;99.90;;;;;;5032129;28;20021;-75
2022/08/15 07:02:57;;;;;;;0.30;0.30;;;12.60;99.90;;;;;;5030201;28;20054;-75
2022/08/15 07:05:34;;;;;;;0.40;0.30;;;12.50;99.90;;;;;;5032402;28;20036;-75
2022/08/15 07:08:22;;;;;;;0.40;0.30;;;12.40;99.90;;;;;;5014870;28;20478;-75
2022/08/15 07:11:00;;;;;;;1.08;0.35;;;12.40;99.90;;;;;;5031757;28;20017;-76
2022/08/15 07:13:51;;;;;;;0.30;0.30;;;12.40;99.90;;;;;;5033021;28;20029;-75
2022/08/15 07:16:59;;;;;;;0.35;0.30;;;12.40;99.90;;;;;;5032944;28;20040;-75
2022/08/15 07:19:27;;;;;;;0.20;0.20;;;12.30;99.90;;;;;;5019119;28;20022;-78
2022/08/15 07:21:54;;;;;;;0.20;0.20;;;12.30;99.90;;;;;;5051456;28;20029;-77
2022/08/15 07:24:29;;;;;;;0.30;0.20;;;12.30;99.90;;;;;;5051426;28;20095;-75
2022/08/15 07:27:02;;;;;;;0.83;0.30;;;12.30;99.90;;;;;;5051440;28;20025;-76
2022/08/15 07:29:43;;;;;;;0.35;0.30;;;12.20;99.90;;;;;;5051775;28;20278;-76
2022/08/15 07:32:36;;;;;;;1.15;0.30;;;12.20;99.90;;;;;;5051545;28;20009;-75
2022/08/15 07:35:12;;;;;;;0.30;0.30;;;12.20;99.90;;;;;;5033747;28;20057;-75
2022/08/15 07:38:03;;;;;;;0.35;0.35;;;12.10;99.90;;;;;;5051522;28;20017;-79
2022/08/15 07:40:37;;;;;;;1.95;0.45;;;12.10;99.90;;;;;;5051450;28;20017;-75
2022/08/15 07:43:25;;;;;;;0.90;0.20;;;12.00;99.90;;;;;;5045497;28;20021;-78
2022/08/15 07:46:08;;;;;;;0.55;0.40;;;12.00;99.90;;;;;;5038231;28;20466;-79
2022/08/15 07:48:35;;;;;;;0.40;0.38;;;12.00;99.90;;;;;;5049784;28;20017;-78
2022/08/15 07:51:16;;;;;;;0.65;0.30;;;11.90;99.90;;;;;;5033838;28;20428;-79
2022/08/15 07:54:19;;;;;;;3.92;0.50;;;11.90;99.90;;;;;;5051425;28;20017;-79
2022/08/15 07:57:03;;;;;;;0.30;0.30;;;11.80;99.90;;;;;;5051091;28;20035;-76
2022/08/15 07:59:36;;;;;;;0.65;0.52;;;11.80;99.90;;;;;;5049597;28;20040;-76
2022/08/15 08:02:08;;;;;;;0.85;0.40;;;11.80;99.90;;;;;;5048957;28;20037;-79
2022/08/15 08:04:36;;;;;;;0.73;0.65;;;11.80;99.90;;;;;;5051462;28;20033;-75
2022/08/15 08:07:32;;;;;;;0.30;0.30;;;11.70;99.90;;;;;;5051408;28;20031;-79
2022/08/15 08:10:03;;;;;;;1.23;0.30;;;11.70;99.90;;;;;;5051918;28;20025;-78
2022/08/15 08:12:54;;;;;;;1.88;0.30;;;11.70;99.90;;;;;;5042087;28;20359;-79
2022/08/15 08:15:32;;;;;;;0.88;0.40;;;11.70;99.90;;;;;;5006901;28;20021;-78
2022/08/15 08:18:12;;;;;;;0.38;0.38;;;11.70;99.90;;;;;;5053638;28;20021;-79
2022/08/15 08:21:05;;;;;;;0.50;0.50;;;11.60;99.90;;;;;;5054051;28;20449;-79
2022/08/15 08:23:45;;;;;;;0.60;0.52;;;11.60;99.90;;;;;;5054748;28;20029;-78
2022/08/15 08:26:24;;;;;;;0.40;0.30;;;11.50;99.90;;;;;;5052508;28;20091;-78
2022/08/15 08:29:20;;;;;;;0.43;0.35;;;11.50;99.90;;;;;;5054883;28;20013;-78
2022/08/15 08:32:12;;;;;;;0.40;0.30;;;11.50;99.90;;;;;;5034043;28;20021;-78
2022/08/15 08:35:14;;;;;;;0.75;0.40;;;11.50;99.90;;;;;;5035224;28;20374;-78
2022/08/15 08:37:48;;;;;;;0.80;0.38;;;11.50;99.90;;;;;;5035419;28;20029;-79
2022/08/15 08:43:03;;;;;;;0.40;0.40;;;11.40;99.90;;;;;;5035630;28;20200;-78
2022/08/15 08:45:44;;;;;;;0.70;0.52;;;11.40;99.90;;;;;;5037855;28;20497;-79
2022/08/15 08:48:15;;;;;;;1.30;0.70;;;11.30;99.90;;;;;;5034656;28;20051;-78
2022/08/15 08:51:21;;;;;;;0.70;0.60;;;11.30;99.90;;;;;;5033384;28;20119;-78
2022/08/15 08:54:09;;;;;;;1.73;0.93;;;11.30;99.90;;;;;;5033759;28;20521;-78
2022/08/15 08:56:47;;;;;;;0.63;0.60;;;11.20;99.90;;;;;;5033428;28;20025;-78
2022/08/15 08:59:31;;;;;;;1.98;0.93;;;11.20;99.90;;;;;;5035830;28;20029;-79
2022/08/15 09:02:37;;;;;;;1.02;0.55;;;11.20;99.90;;;;;;5035757;28;20490;-79
2022/08/15 09:05:30;;;;;;;2.22;0.90;;;11.10;99.90;;;;;;5035421;28;20029;-78
2022/08/15 09:08:05;;;;;;;1.60;0.85;;;11.00;99.90;;;;;;5037565;28;20073;-79
2022/08/15 09:10:35;;;;;;;1.93;1.03;;;11.00;99.90;;;;;;5036166;28;20029;-79
2022/08/15 09:15:55;;;;;;;1.00;0.75;;;10.90;99.90;;;;;;5035565;28;20398;-79
2022/08/15 09:18:30;;;;;;;1.38;0.90;;;11.00;99.90;;;;;;5039202;28;20103;-79
2022/08/15 09:20:58;;;;;;;0.85;0.68;;;11.00;99.90;;;;;;5038253;28;20047;-79
2022/08/15 09:23:30;;;;;;;3.65;1.33;;;10.90;99.90;;;;;;5038456;28;20074;-79
2022/08/15 09:26:14;;;;;;;3.83;1.55;;;10.90;99.90;;;;;;5033238;28;20453;-79
2022/08/15 09:28:48;;;;;;;3.17;2.03;;;10.80;99.90;;;;;;5038367;28;20040;-79
2022/08/15 09:31:24;;;;;;;4.10;1.55;;;10.80;99.90;;;;;;5032435;28;20099;-79
2022/08/15 09:34:03;;;;;;;4.30;1.80;;;10.70;99.90;;;;;;5033842;28;20451;-79
2022/08/15 09:36:41;;;;;;;2.22;1.15;;;10.80;99.90;;;;;;5036251;28;20021;-80
2022/08/15 09:39:45;;;;;;;2.25;1.30;;;10.70;99.90;;;;;;5034441;28;20037;-80
2022/08/15 09:42:27;;;;;;;1.48;1.15;;;10.70;99.90;;;;;;5032491;28;20029;-80
2022/08/15 09:45:18;;;;;;;1.42;0.98;;;10.70;99.90;;;;;;5033893;28;20139;-80
2022/08/15 09:48:18;;;;;;;1.70;0.82;;;10.70;99.90;;;;;;5016349;28;20021;-80
2022/08/15 09:51:12;;;;;;;1.30;0.82;;;10.70;99.90;;;;;;5032858;28;20104;-80
2022/08/15 09:54:06;;;;;;;3.03;0.77;;;10.70;99.90;;;;;;5033831;28;20013;-80
2022/08/15 09:56:37;;;;;;;0.93;0.70;;;10.70;99.90;;;;;;5032668;28;20429;-80
2022/08/15 09:59:25;;;;;;;0.70;0.60;;;10.70;99.90;;;;;;5014540;28;20390;-80
2022/08/15 10:02:00;;;;;;;0.77;0.63;;;10.60;99.90;;;;;;5011244;28;20068;-80
2022/08/15 10:04:49;;;;;;;0.95;0.68;;;10.60;99.90;;;;;;5051345;28;20040;-80
2022/08/15 10:07:16;;;;;;;0.60;0.50;;;10.60;99.90;;;;;;5050692;28;20021;-80
2022/08/15 10:10:03;;;;;;;2.15;0.60;;;10.60;99.90;;;;;;5047126;28;20021;-79
2022/08/15 10:12:37;;;;;;;1.42;0.57;;;10.50;99.90;;;;;;5048956;28;20025;-80
2022/08/15 10:15:43;;;;;;;0.98;0.50;;;10.50;99.90;;;;;;5047592;28;20524;-80
2022/08/15 10:18:26;;;;;;;1.13;0.90;;;10.50;99.90;;;;;;5050418;28;20027;-80
2022/08/15 10:20:56;;;;;;;1.65;0.70;;;10.50;99.90;;;;;;5051874;28;20013;-80
2022/08/15 10:23:51;;;;;;;0.95;0.68;;;10.50;99.90;;;;;;5047072;28;20021;-80
2022/08/15 10:26:29;;;;;;;0.70;0.60;;;10.50;99.90;;;;;;5044450;28;20037;-79
2022/08/15 10:29:18;;;;;;;0.68;0.50;;;10.40;99.90;;;;;;5031731;28;20079;-80
2022/08/15 10:32:04;;;;;;;0.65;0.50;;;10.40;99.90;;;;;;5033001;28;20117;-80
2022/08/15 10:34:41;;;;;;;0.65;0.55;;;10.40;99.90;;;;;;5051723;28;20025;-80
2022/08/15 10:37:27;;;;;;;0.80;0.50;;;10.40;99.90;;;;;;5050009;28;20021;-79
2022/08/15 10:40:24;;;;;;;3.85;0.55;;;10.40;99.90;;;;;;5051298;28;20060;-80
2022/08/15 10:43:11;;;;;;;1.17;0.60;;;10.40;99.90;;;;;;5051864;28;20029;-80
2022/08/15 10:46:19;;;;;;;1.25;0.70;;;10.40;99.90;;;;;;5040515;28;20144;-80
2022/08/15 10:48:52;;;;;;;1.20;0.50;;;10.30;99.90;;;;;;5052655;28;20013;-80
2022/08/15 10:51:48;;;;;;;1.40;0.60;;;10.30;99.90;;;;;;5035133;28;20450;-80
2022/08/15 10:54:36;;;;;;;1.88;0.55;;;10.30;99.90;;;;;;5049553;28;20032;-79
2022/08/15 10:57:08;;;;;;;1.02;0.50;;;10.30;99.90;;;;;;5052322;28;20017;-79
2022/08/15 10:59:45;;;;;;;0.80;0.60;;;10.30;99.90;;;;;;5052743;28;20020;-79
2022/08/15 11:02:49;;;;;;;0.60;0.50;;;10.30;99.90;;;;;;5051068;28;20036;-81
2022/08/15 11:05:22;;;;;;;0.52;0.45;;;10.20;99.90;;;;;;5021610;28;20053;-81
2022/08/15 11:07:56;;;;;;;1.25;0.65;;;10.20;99.90;;;;;;5049023;28;20098;-80
2022/08/15 11:10:27;;;;;;;1.02;0.40;;;10.20;99.90;;;;;;5031091;28;20017;-80
2022/08/15 11:13:05;;;;;;;1.02;0.60;;;10.20;99.90;;;;;;5031430;28;20434;-81
2022/08/15 11:15:54;;;;;;;1.38;0.60;;;10.10;99.90;;;;;;5031978;28;20104;-80
2022/08/15 11:18:35;;;;;;;1.15;0.80;;;10.10;99.90;;;;;;5031702;28;20478;-81
2022/08/15 11:21:32;;;;;;;3.70;0.63;;;10.10;99.90;;;;;;5032544;28;20025;-80
2022/08/15 11:24:02;;;;;;;1.23;0.70;;;10.10;99.90;;;;;;5013929;28;20375;-79
2022/08/15 11:26:33;;;;;;;2.15;0.60;;;10.10;99.90;;;;;;5031345;28;20104;-81
2022/08/15 11:29:20;;;;;;;1.95;0.55;;;10.10;99.90;;;;;;5013585;28;20041;-79
2022/08/15 11:31:53;;;;;;;0.85;0.43;;;10.10;99.90;;;;;;5032148;28;20486;-80
2022/08/15 11:34:41;;;;;;;1.48;0.55;;;10.10;99.90;;;;;;5031389;28;20113;-81
2022/08/15 11:37:13;;;;;;;1.08;0.75;;;10.10;99.90;;;;;;5029213;28;20022;-80
2022/08/15 11:39:54;;;;;;;1.15;0.70;;;10.10;99.90;;;;;;5031426;28;20021;-81
2022/08/15 11:42:23;;;;;;;2.47;0.75;;;10.10;99.90;;;;;;5031896;28;20017;-80
2022/08/15 11:45:05;;;;;;;1.35;0.60;;;10.10;99.90;;;;;;5030293;28;20026;-82
2022/08/15 11:47:35;;;;;;;0.63;0.45;;;10.10;99.90;;;;;;5030602;28;20026;-82
2022/08/15 11:50:21;;;;;;;0.60;0.40;;;10.10;99.90;;;;;;5036486;28;20021;-81
2022/08/15 11:52:51;;;;;;;2.17;0.90;;;10.10;99.90;;;;;;5034028;28;20034;-80
2022/08/15 11:55:22;;;;;;;1.77;0.93;;;10.10;99.90;;;;;;5036732;28;20029;-80
2022/08/15 11:57:52;;;;;;;0.82;0.40;;;10.10;99.90;;;;;;5034099;28;20049;-80
2022/08/15 12:00:41;;;;;;;0.85;0.50;;;10.20;99.90;;;;;;5036433;28;20442;-81
2022/08/15 12:03:38;;;;;;;0.90;0.73;;;10.10;99.90;;;;;;5036554;28;20501;-81
2022/08/15 12:06:14;;;;;;;0.68;0.50;;;10.10;99.90;;;;;;5021669;28;20520;-81
2022/08/15 12:08:47;;;;;;;1.88;0.50;;;10.10;99.90;;;;;;5036539;28;20037;-81
2022/08/15 12:11:16;;;;;;;1.55;0.75;;;10.10;99.90;;;;;;5034628;28;20022;-80
2022/08/15 12:14:04;;;;;;;2.05;0.73;;;10.10;99.90;;;;;;5036168;28;20027;-82
2022/08/15 12:16:43;;;;;;;0.90;0.52;;;10.10;99.90;;;;;;5034022;28;20045;-81
2022/08/15 12:19:50;;;;;;;0.95;0.35;;;10.10;99.90;;;;;;5034046;28;20018;-81
2022/08/15 12:22:34;;;;;;;0.65;0.65;;;10.10;99.90;;;;;;5015720;28;20120;-81
2022/08/15 12:25:03;;;;;;;1.10;0.70;;;10.00;99.90;;;;;;5035169;28;20979;-81
2022/08/15 12:27:30;;;;;;;1.48;0.73;;;10.00;99.90;;;;;;5033749;28;20033;-81
2022/08/15 12:29:58;;;;;;;0.50;0.50;;;10.00;99.90;;;;;;5035949;28;20022;-81
2022/08/15 12:32:26;;;;;;;1.10;0.50;;;10.00;99.90;;;;;;5035840;28;20028;-81
2022/08/15 12:34:54;;;;;;;0.50;0.45;;;10.00;99.90;;;;;;5035947;28;20021;-80
2022/08/15 12:37:25;;;;;;;0.60;0.43;;;10.10;99.90;;;;;;5017973;28;20017;-80
2022/08/15 12:39:58;;;;;;;0.77;0.50;;;10.00;99.90;;;;;;5033747;28;20029;-81
2022/08/15 12:42:31;;;;;;;0.70;0.60;;;10.00;99.90;;;;;;5035849;28;20021;-82
2022/08/15 12:45:01;;;;;;;0.70;0.60;;;10.00;99.90;;;;;;5035747;28;20616;-81
2022/08/15 12:47:30;;;;;;;0.60;0.50;;;10.00;99.90;;;;;;5035721;28;20141;-82
2022/08/15 12:49:58;;;;;;;0.80;0.60;;;10.00;99.90;;;;;;5035683;28;20017;-82
2022/08/15 12:52:26;;;;;;;0.98;0.50;;;10.00;99.90;;;;;;5035324;28;20025;-81
2022/08/15 12:54:53;;;;;;;1.20;0.65;;;10.00;99.90;;;;;;5035432;28;20104;-81
2022/08/15 12:57:21;;;;;;;0.90;0.52;;;10.00;99.90;;;;;;5035456;28;20391;-81
2022/08/15 12:59:48;;;;;;;0.65;0.47;;;10.00;99.90;;;;;;5031755;28;20052;-79
2022/08/15 13:02:17;;;;;;;1.15;0.68;;;10.00;99.90;;;;;;5035056;28;20498;-80
2022/08/15 13:04:50;;;;;;;0.68;0.50;;;10.00;99.90;;;;;;5035185;28;20033;-79
2022/08/15 13:07:19;;;;;;;0.70;0.50;;;10.00;99.90;;;;;;5034290;28;20022;-80
2022/08/15 13:09:48;;;;;;;0.60;0.50;;;10.00;99.90;;;;;;5034915;28;20022;-80
2022/08/15 13:12:17;;;;;;;0.75;0.50;;;10.00;99.90;;;;;;5034713;28;20018;-77
2022/08/15 13:14:45;;;;;;;0.70;0.40;;;10.00;99.90;;;;;;5037112;28;20027;-79
2022/08/15 13:17:14;;;;;;;0.40;0.40;;;10.00;99.90;;;;;;5034886;28;20028;-79
2022/08/15 13:25:23;;;;;;;0.50;0.40;;;10.00;99.90;;;;;;5038390;28;20084;-80
2022/08/15 13:27:50;;;;;;;2.00;0.65;;;10.00;99.90;;;;;;5035675;28;20018;-80
2022/08/15 13:30:20;;;;;;;0.70;0.57;;;10.00;99.90;;;;;;5035358;28;20446;-80
2022/08/15 13:32:49;;;;;;;2.13;0.80;;;10.00;99.90;;;;;;5035293;28;20041;-80
2022/08/15 13:35:18;;;;;;;0.60;0.43;;;10.00;99.90;;;;;;5035532;28;20032;-80
2022/08/15 13:37:47;;;;;;;0.70;0.60;;;10.00;99.90;;;;;;5035495;28;20048;-80
2022/08/15 13:40:21;;;;;;;2.05;0.60;;;10.00;99.90;;;;;;5035241;28;20143;-80
2022/08/15 13:42:49;;;;;;;1.35;0.40;;;10.10;99.90;;;;;;5035333;28;20072;-80
2022/08/15 13:45:18;;;;;;;0.60;0.40;;;10.10;99.90;;;;;;5035187;28;20034;-80